Sierra Nevada Aquatic Research Lab (SNARL) Reserve, Santa Monica Mtns, California Weather observations

Data are for 10 minute period ending at time listed.
 Day   Time   Solar   Ave.   Ave.  Ave.  Vector  Max.   Baro.   Total    
  of    of     Rad.   Air    Rel.  Wind   Wind   Wind  Press.  Precip.   
Year   Day            Temp.  Hum.  Speed  Dir.   Gust                    
2014   (PST)  Kw/m2    F      %     mph   deg.    mph    mb.     in.     
-------------------------------------------------------------------------
 265    0:10   0.00   41.6    86    1.7   276     4.5   788.4    0.00 
 265    0:20   0.00   41.5    84    2.0   231     4.5   788.3    0.00 
 265    0:30   0.00   41.6    84    2.6   251     4.6   788.3    0.00 
 265    0:40   0.00   41.6    86    2.7   331     5.4   788.4    0.00 
 265    0:50   0.00   40.4    84    0.2    24     2.2   788.4    0.00 
 265    1:00   0.00   39.8    89    1.1   293     2.4   788.3    0.00 
 265    1:10   0.00   39.9    88    2.5   283     4.3   788.3    0.00 
 265    1:20   0.00   38.7    88    2.0   251     4.1   788.3    0.00 
 265    1:30   0.00   38.3    90    1.6   332     3.5   788.3    0.00 
 265    1:40   0.00   37.7    90    2.0   310     3.7   788.2    0.00 
 265    1:50   0.00   37.9    92    2.9   295     4.2   788.2    0.00 
 265    2:00   0.00   37.9    87    1.5   287     2.9   788.3    0.00 
 265    2:10   0.00   36.3    89    1.1    92     2.3   788.4    0.00 
 265    2:20   0.00   35.9    91    1.0   130     2.0   788.3    0.00 
 265    2:30   0.00   36.6    93    1.0   246     2.2   788.4    0.00 
 265    2:40   0.00   36.9    92    1.5   303     3.0   788.4    0.00 
 265    2:50   0.00   36.6    94    0.4   307     2.1   788.4    0.00 
 265    3:00   0.00   36.4    92    0.6   270     1.9   788.4    0.00 
 265    3:10   0.00   35.6    92    0.8   104     3.0   788.4    0.00 
 265    3:20   0.00   35.2    94    0.4   160     1.5   788.3    0.00 
 265    3:30   0.00   35.5    92    1.6   240     2.6   788.4    0.00 
 265    3:40   0.00   36.9    91    1.6   236     2.7   788.4    0.00 
 265    3:50   0.00   36.6    90    2.8   249     4.0   788.3    0.00 
 265    4:00   0.00   36.2    92    1.3   350     3.1   788.3    0.00 
 265    4:10   0.00   36.8    92    3.3   323     6.1   788.3    0.00 
 265    4:20   0.00   36.2    90    1.9   305     3.9   788.4    0.00 
 265    4:30   0.00   35.1    90    1.9   251     3.6   788.4    0.00 
 265    4:40   0.00   34.9    95    0.8   286     2.0   788.4    0.00 
 265    4:50   0.00   34.1    94    0.5   243     1.6   788.4    0.00 
 265    5:00   0.00   33.6    95    0.1   281     0.9   788.4    0.00 
 265    5:10   0.00   32.6    95    1.5   294     2.5   788.4    0.00 
 265    5:20   0.00   32.9    97    0.6   246     2.3   788.5    0.00 
 265    5:30   0.00   33.1    96    0.8   216     1.5   788.5    0.00 
 265    5:40   0.00   33.8    96    1.3   255     2.5   788.6    0.00 
 265    5:50   0.00   33.2    95    1.6   242     3.2   788.7    0.00 
 265    6:00   0.01   34.1    96    0.2   285     0.9   788.7    0.00 
 265    6:10   0.04   35.4    94    0.1   329     0.9   788.7    0.00 
 265    6:20   0.07   36.9    91    1.3   312     2.4   788.8    0.00 
 265    6:30   0.11   39.7    88    0.3   308     2.7   788.9    0.00 
 265    6:40   0.13   41.6    80    3.1   323     3.9   789.0    0.00 
 265    6:50   0.16   42.5    79    1.8   319     3.7   789.0    0.00 
 265    7:00   0.19   45.9    72    0.2   342     1.2   789.0    0.00 
 265    7:10   0.23   49.0    65    0.1   180     1.3   789.0    0.00 
 265    7:20   0.26   51.3    62    0.3    49     1.4   789.0    0.00 
 265    7:30   0.28   53.1    59    0.3   110     1.2   789.0    0.00 
 265    7:40   0.33   55.0    56    0.8    45     2.6   789.0    0.00 
 265    7:50   0.37   55.4    58    1.4    45     3.1   789.0    0.00 
 265    8:00   0.40   55.4    60    2.1    62     3.7   789.0    0.00 
 265    8:10   0.44   56.2    59    2.4    44     4.9   789.0    0.00 
 265    8:20   0.47   56.4    57    2.6    62     4.4   788.9    0.00 
 265    8:30   0.50   57.1    56    3.2    68     6.1   788.9    0.00 
 265    8:40   0.53   58.1    54    2.9    49     5.7   788.8    0.00 
 265    8:50   0.56   59.6    53    2.7    58     6.0   788.8    0.00 
 265    9:00   0.59   60.4    51    2.6    48     5.8   788.9    0.00 
 265    9:10   0.61   61.6    49    3.6    48     6.9   789.0    0.00 
 265    9:20   0.64   62.3    47    2.8    55     5.6   789.0    0.00 
 265    9:30   0.66   63.0    45    4.2    68     7.7   789.1    0.00 
 265    9:40   0.69   63.7    44    4.6    66     8.8   789.2    0.00 
 265    9:50   0.71   64.8    42    5.3    83    10.1   789.1    0.00 
 265   10:00   0.73   65.8    40    6.5    87    11.4   789.2    0.00 
 265   10:10   0.75   66.7    39    5.2    95     9.2   789.2    0.00 
 265   10:20   0.77   67.0    38    4.5    82     8.0   789.1    0.00 
 265   10:30   0.78   67.6    35    5.4   101     9.0   789.1    0.00 
 265   10:40   0.75   69.0    34    5.5    86    11.1   789.0    0.00 
 265   10:50   0.81   68.7    31    5.6   102    11.5   789.0    0.00 
 265   11:00   0.82   69.1    32    6.0    68    13.2   789.0    0.00 
 265   11:10   0.82   69.3    30    5.9    75    13.5   788.9    0.00 
 265   11:20   0.82   70.2    28    5.4    95    11.0   788.9    0.00 
 265   11:30   0.83   70.7    29    5.2    85    10.9   788.8    0.00 
 265   11:40   0.84   70.8    29    5.3    71    11.0   788.7    0.00 
 265   11:50   0.84   71.0    30    7.2    86    14.7   788.5    0.00 
 265   12:00   0.83   71.2    30    8.8    98    14.1   788.5    0.00 
 265   12:10   0.83   71.2    31    6.5    81    12.8   788.5    0.00 
 265   12:20   0.83   71.9    30    9.2   101    16.3   788.5    0.00 
 265   12:30   0.82   72.1    30    5.6    65    13.1   788.4    0.00 
 265   12:40   0.82   72.5    29    8.7   100    15.0   788.3    0.00 
 265   12:50   0.81   72.6    30    8.6    87    14.6   788.2    0.00 
 265   13:00   0.80   73.2    29    8.9    90    14.6   788.1    0.00 
 265   13:10   0.78   73.1    28    6.9    92    13.3   788.1    0.00 
 265   13:20   0.77   73.2    28    9.8   106    15.4   788.0    0.00 
 265   13:30   0.75   73.8    26   10.4   102    15.9   787.8    0.00 
 265   13:40   0.73   74.3    26   10.3   107    16.5   787.7    0.00 
 265   13:50   0.71   74.4    26   10.2   117    16.3   787.6    0.00 
 265   14:00   0.69   74.3    26    9.5    96    15.9   787.5    0.00 
 265   14:10   0.66   74.8    25    9.6   116    16.1   787.4    0.00 
 265   14:20   0.64   74.4    25   10.9   102    16.2   787.4    0.00 
 265   14:30   0.62   74.6    25    6.7    88    14.3   787.4    0.00 
 265   14:40   0.55   75.1    24   10.1   107    17.0   787.2    0.00 
 265   14:50   0.57   74.6    24   11.1   107    16.7   787.2    0.00 
 265   15:00   0.53   74.6    25    8.3    88    14.5   787.1    0.00 
 265   15:10   0.50   74.2    25    6.8    74    13.6   787.1    0.00 
 265   15:20   0.46   74.2    25    7.2    90    12.7   787.1    0.00 
 265   15:30   0.43   74.9    25    5.2    72    11.2   787.0    0.00 
 265   15:40   0.40   74.5    25    6.4    91    12.6   786.9    0.00 
 265   15:50   0.36   74.0    25    6.5    98    12.5   786.9    0.00 
 265   16:00   0.33   74.4    25    6.1    84    10.4   786.8    0.00 
 265   16:10   0.30   73.9    25    6.3   103    11.8   786.8    0.00 
 265   16:20   0.27   73.6    25    6.9    90    12.0   786.7    0.00 
 265   16:30   0.23   73.3    26    8.8   101    14.5   786.7    0.00 
 265   16:40   0.20   72.4    27    8.1    90    13.2   786.8    0.00 
 265   16:50   0.16   72.1    27    6.5    90    10.3   786.9    0.00 
 265   17:00   0.13   71.6    28    6.1    86     8.4   786.9    0.00 
 265   17:10   0.10   71.1    29    4.4    87     7.6   787.0    0.00 
 265   17:20   0.07   70.8    29    3.1    99     6.0   787.0    0.00 
 265   17:30   0.04   70.2    32    1.6    68     4.5   787.1    0.00 
 265   17:40   0.01   68.1    33    3.3    17     8.0   787.1    0.00 
 265   17:50   0.00   66.1    36    2.7   354     6.1   787.1    0.00 
 265   18:00   0.00   63.7    38    1.9   268     4.6   787.1    0.00 
 265   18:10   0.00   61.3    40    1.8   260     4.8   787.2    0.00 
 265   18:20   0.00   57.9    43    3.8   248     5.2   787.2    0.00 
 265   18:30   0.00   57.2    44    2.6   259     5.1   787.1    0.00 
 265   18:40   0.00   56.0    45    3.3   249     7.2   787.1    0.00 
 265   18:50   0.00   55.7    46    2.3   241     4.6   787.1    0.00 
 265   19:00   0.00   54.5    48    1.4   279     3.4   787.2    0.00 
 265   19:10   0.00   55.3    48    3.1   265     4.6   787.3    0.00 
 265   19:20   0.00   54.5    49    1.7   229     4.2   787.3    0.00 
 265   19:30   0.00   55.0    48    4.4   253     7.1   787.3    0.00 
 265   19:40   0.00   53.0    51    3.2   256     5.1   787.4    0.00 
 265   19:50   0.00   52.8    52    3.5   252     5.3   787.5    0.00 
 265   20:00   0.00   51.3    54    1.4   178     3.7   787.6    0.00 
 265   20:10   0.00   51.0    57    1.3    82     2.8   787.7    0.00 
 265   20:20   0.00   49.6    57    0.8   232     2.3   787.7    0.00 
 265   20:30   0.00   49.1    57    0.9   158     1.7   787.8    0.00 
 265   20:40   0.00   49.1    58    0.4   139     1.8   787.9    0.00 
 265   20:50   0.00   49.0    58    0.6   239     2.0   788.0    0.00 
 265   21:00   0.00   48.3    59    1.8   218     2.4   788.1    0.00 
 265   21:10   0.00   47.7    60    1.6   204     3.1   788.1    0.00 
 265   21:20   0.00   48.8    59    4.2   239     5.6   788.2    0.00 
 265   21:30   0.00   50.2    56    3.0   211     5.5   788.3    0.00 
 265   21:40   0.00   50.2    55    3.7   239     5.5   788.3    0.00 
 265   21:50   0.00   50.1    55    4.1   236     5.2   788.3    0.00 
 265   22:00   0.00   49.4    56    1.2   231     4.3   788.3    0.00 
 265   22:10   0.00   48.9    60    2.1   306     3.7   788.2    0.00 
 265   22:20   0.00   47.0    62    1.0   256     3.1   788.3    0.00 
 265   22:30   0.00   45.1    63    1.5   200     3.1   788.2    0.00 
 265   22:40   0.00   44.2    66    0.9   190     2.0   788.2    0.00 
 265   22:50   0.00   44.6    65    0.6   256     1.5   788.2    0.00 
 265   23:00   0.00   45.5    64    2.2   252     3.3   788.2    0.00 
 265   23:10   0.00   45.8    65    3.5   258     4.8   788.3    0.00 
 265   23:20   0.00   45.3    65    3.3   230     4.6   788.3    0.00 
 265   23:30   0.00   45.9    63    3.9   238     4.9   788.3    0.00 
 265   23:40   0.00   46.9    63    3.4   280     5.1   788.3    0.00 
 265   23:50   0.00   46.4    64    3.6   311     6.2   788.3    0.00 
 266    0:00   0.00   45.1    65    2.9   291     4.9   788.3    0.00 

Return to SNARL Reserve graphs page.


Western Regional Climate Center,wrcc@dri.edu